Inverness, FL

9:11 AM EDT on September 03, 2015 (GMT -0400)
Inverness | | Change Station
CLOSE
Current Station
Airport
Location: Inverness,
Elevation: 49 ft
Nearby Weather Stations

Elev 49 ft 28.81 °N, 82.32 °W | Updated 16 minutes ago

Clear
Clear
79 °F
Feels Like 79 °F
N
4
Wind Variable Wind from SE

Today
High -- | Low -- °F
--% Chance of Precip.
Yesterday
High -- | Low -- °F
Precip. -- in
7:08 AM 7:48 PM
Waning Gibbous, 70% visible
Pressure 30.01 in
Visibility 7.0 miles
Clouds Clear
Dew Point 79 °F
Humidity 100%
Rainfall 0.00 in
Snow Depth Not available.
UV 2 out of 12
Pollen 4.20 out of 12
Air Quality Not available.
Flu Activity Not available.
METAR KINF 031255Z AUTO 14003KT 7SM CLR 26/26 A3001 RMK AO2
Pressure 30.01 in
Visibility 7.0 miles
Clouds Clear
Dew Point 79 °F
Humidity 100%
Rainfall 0.00 in
Snow Depth Not available.
UV 2 out of 12
Pollen 4.20 out of 12
Air Quality Not available.
Flu Activity Not available.
METAR KINF 031255Z AUTO 14003KT 7SM CLR 26/26 A3001 RMK AO2

10-Day Weather Forecast

×

Almanac

Astronomy

Sep. 03, 2015 Rise Set
Actual Time
Civil Twilight
Nautical Twilight
Astronomical Twilight
Moon
Length of Visible Light
Length of Day
Tomorrow will be .
, % of the Moon is Illuminated

Today's Extremes

State Highs State Lows

Community

WunderPhotos

Upload Photos

1,851,952 photos uploaded!

WunderBlogs® & News

Nearby

Air Quality

  Air Quality AQ Index Pollutant
Not available.

Snow Depth

Station Depth Elevation

Earthquake Activity

City Distance Mag. Time & Date
Minimum magnitude displayed is 2.5.

Coastal Water Temperatures

Place Temperature

Stations

Nearby Weather Stations

Station Location Temp. Windchill Dew Point Humidity Wind Precip. Elev Updated Type